»·PEaware :: N2440C L88-KSBP

N2440C :: L88-KSBP

FLIGHT INFORMATION

Flight Status: Arrived
Operator: Privately registered:
United States
More flights under this callsign
Pilot: Andrew D. (41581)
Aircraft: CESSNA 172 SKYHAWK
(C172)
More flights by this aircraft type
Origin: L88 New Cuyama
United States
Destination: KSBP San Luis Co Regl
United States
More flights between these airports :: More routes between these airports
Route: MQO
File this flight plan on PilotEdge
Remarks: CAT-2 Rating. 2nd time on PE / 1st time using ATC.
Altitude:
(Current/Filed)
6,500ft
Speed:
(Current/Filed)
105kts
Departed: 28-Sep-22 07:36 PM
Arrived: 28-Sep-22 08:56 PM
Distance/Time
Traveled:
50nm/1:20
Distance/Time
To Go:
Arrived

Flight Plot

Page will automatically refresh every two minutes.


Map Options




Map Legend


Flown Route
Filed Route
Departure Airport
Arrival Airport
Navaid (VOR, NDB)
Fix

Horizontal Profiles

Position Reports

Time Latitude Longitude Heading Altitude Ground
Speed
28-Sep-22 19:27 34.943924 -119.690797 202 2154ft 0kts
28-Sep-22 19:28 34.943924 -119.690797 202 2154ft 0kts
28-Sep-22 19:29 34.943924 -119.690797 202 2154ft 0kts
28-Sep-22 19:30 34.943924 -119.690797 202 2154ft 0kts
28-Sep-22 19:31 34.943924 -119.690797 202 2154ft 0kts
28-Sep-22 19:32 34.943924 -119.690797 202 2154ft 0kts
28-Sep-22 19:33 34.943924 -119.690797 202 2154ft 0kts
28-Sep-22 19:34 34.942602 -119.691249 192 2155ft 0kts
28-Sep-22 19:35 34.940371 -119.686620 117 2174ft 72kts
28-Sep-22 19:36 34.930145 -119.661990 120 2918ft 86kts
28-Sep-22 19:37 34.913398 -119.643112 156 3563ft 92kts
28-Sep-22 19:38 34.900826 -119.660707 297 4061ft 105kts
28-Sep-22 19:39 34.917545 -119.690107 302 4565ft 105kts
28-Sep-22 19:40 34.934515 -119.718944 302 5068ft 104kts
28-Sep-22 19:41 34.951391 -119.747120 302 5572ft 102kts
28-Sep-22 19:42 34.968101 -119.774498 302 6075ft 100kts
28-Sep-22 19:43 34.981691 -119.803430 278 6473ft 104kts
28-Sep-22 19:44 34.988053 -119.841410 278 6474ft 118kts
28-Sep-22 19:45 34.991676 -119.881275 268 6473ft 118kts
28-Sep-22 19:46 34.997557 -119.920846 287 6473ft 121kts
28-Sep-22 19:47 35.009466 -119.959221 287 6473ft 120kts
28-Sep-22 19:48 35.021408 -119.997394 287 6473ft 120kts
28-Sep-22 19:49 35.033323 -120.035358 287 6472ft 119kts
28-Sep-22 19:50 35.045040 -120.073016 287 6470ft 117kts
28-Sep-22 19:51 35.056364 -120.110202 287 6468ft 116kts
28-Sep-22 19:52 35.062742 -120.147836 264 6466ft 113kts
28-Sep-22 19:53 35.068705 -120.185795 283 6415ft 118kts
28-Sep-22 19:54 35.077509 -120.228121 283 5771ft 132kts
28-Sep-22 19:55 35.085710 -120.270143 283 5011ft 113kts
28-Sep-22 19:56 35.092334 -120.305874 283 4020ft 106kts
28-Sep-22 19:57 35.098397 -120.335179 287 3858ft 80kts
28-Sep-22 19:58 35.104542 -120.360884 287 3859ft 78kts
28-Sep-22 19:59 35.110593 -120.386086 287 3858ft 77kts
28-Sep-22 20:00 35.117430 -120.410795 290 3856ft 76kts
28-Sep-22 20:01 35.124749 -120.435512 290 3819ft 82kts
28-Sep-22 20:02 35.132731 -120.462564 290 3808ft 85kts
28-Sep-22 20:03 35.148153 -120.490382 315 3304ft 114kts
28-Sep-22 20:04 35.167070 -120.515165 310 2755ft 83kts
28-Sep-22 20:05 35.179204 -120.538430 300 2299ft 62kts
28-Sep-22 20:06 35.188358 -120.557174 302 2119ft 82kts
28-Sep-22 20:07 35.202144 -120.578700 305 1524ft 77kts
28-Sep-22 20:08 35.213301 -120.598966 303 1100ft 58kts
28-Sep-22 20:09 35.218042 -120.609387 342 1174ft 50kts
28-Sep-22 20:16 34.943921 -119.690797 202 2154ft 0kts
28-Sep-22 20:17 34.943921 -119.690797 202 2154ft 0kts
28-Sep-22 20:18 34.942506 -119.691258 194 2155ft 0kts
28-Sep-22 20:19 34.942213 -119.691186 118 2156ft 2kts
28-Sep-22 20:20 34.937433 -119.677696 110 2367ft 77kts
28-Sep-22 20:21 34.932322 -119.654491 109 3010ft 80kts
28-Sep-22 20:22 34.911799 -119.642919 205 3677ft 92kts
28-Sep-22 20:23 34.914867 -119.668539 305 4546ft 86kts
28-Sep-22 20:24 34.928743 -119.690336 303 5289ft 87kts
28-Sep-22 20:25 34.944923 -119.716627 303 5805ft 104kts
28-Sep-22 20:26 34.956674 -119.748141 274 6302ft 104kts
28-Sep-22 20:27 34.962278 -119.783566 280 6517ft 109kts
28-Sep-22 20:28 34.970611 -119.819525 283 6517ft 110kts
28-Sep-22 20:29 34.980179 -119.855016 285 6516ft 109kts
28-Sep-22 20:30 34.990068 -119.889295 285 6517ft 106kts
28-Sep-22 20:31 35.000121 -119.923100 286 6517ft 105kts
28-Sep-22 20:32 35.010226 -119.956565 286 6517ft 105kts
28-Sep-22 20:33 35.020368 -119.989907 286 6517ft 104kts
28-Sep-22 20:34 35.030506 -120.023131 286 6516ft 104kts
28-Sep-22 20:35 35.041039 -120.057640 287 6187ft 116kts
28-Sep-22 20:36 35.052708 -120.095625 289 5299ft 121kts
28-Sep-22 20:37 35.065005 -120.134120 290 4219ft 122kts
28-Sep-22 20:38 35.067282 -120.171314 273 3893ft 100kts
28-Sep-22 20:39 35.068613 -120.204893 301 3892ft 97kts
28-Sep-22 20:40 35.072958 -120.237285 276 3891ft 100kts
28-Sep-22 20:41 35.074216 -120.272141 276 3732ft 112kts
28-Sep-22 20:42 35.080308 -120.311348 288 3241ft 120kts
28-Sep-22 20:43 35.090500 -120.349713 298 2889ft 111kts
28-Sep-22 20:44 35.099849 -120.383739 288 2888ft 103kts
28-Sep-22 20:45 35.108293 -120.417170 294 2888ft 101kts
28-Sep-22 20:46 35.121478 -120.447177 303 2886ft 99kts
28-Sep-22 20:47 35.137391 -120.474834 308 2883ft 99kts
28-Sep-22 20:48 35.156791 -120.504771 308 2101ft 110kts
28-Sep-22 20:49 35.174726 -120.532581 307 1579ft 92kts
28-Sep-22 20:50 35.187021 -120.552587 304 1585ft 64kts
28-Sep-22 20:51 35.197463 -120.572574 301 1346ft 78kts
28-Sep-22 20:52 35.209567 -120.592416 304 1180ft 67kts
28-Sep-22 20:53 35.219938 -120.611070 304 893ft 66kts
28-Sep-22 20:54 35.230619 -120.629278 303 342ft 62kts
28-Sep-22 20:55 35.236669 -120.639663 312 216ft 16kts
28-Sep-22 20:56 35.237481 -120.639923 8 216ft 0kts
28-Sep-22 20:57 35.237481 -120.639923 8 216ft 0kts
28-Sep-22 20:58 35.237481 -120.639923 8 216ft 0kts
28-Sep-22 20:59 35.238688 -120.639343 33 216ft 6kts
28-Sep-22 21:00 35.238808 -120.638992 164 216ft 0kts
28-Sep-22 21:01 35.238808 -120.638992 164 216ft 0kts
28-Sep-22 21:02 35.238808 -120.638992 164 216ft 0kts
28-Sep-22 21:03 35.238808 -120.638992 164 216ft 0kts
28-Sep-22 21:04 35.238808 -120.638992 164 216ft 0kts
28-Sep-22 21:05 35.238808 -120.638992 164 216ft 0kts

Navigation Log

Ident Type
Flight plan parsing failed, navigation log unavailable